Churchland, North Carolina
Current Conditions -  °F | °C
As of 11:35 AM on Thursday 23 Oct 2014 (Local Time) from KEXX Reporting Station
Clear Clear  
Wind Chill: 59°   Ceiling: Unl
Heat Index: 59°   Visibility: 10mi
Dew Point: 39°   Wind: 5mph
Humidity: 47%   Direction: 10°N
Pressure: 30.06"   Gusts: NA
Location:  35.7974°N, 80.2541°W
Report Text: KEXX 231535Z AUTO 01004KT 10SM CLR 15/04 A3006 RMK AO2 T01520039
Loading
Personal Weather Stations






























Interactive Weather Map
Tropical Storm Tracking
New forecast layout! Learn more

10-Day Weather Forecast

Advertisements
Track Severe Weather on mobile